sensor_id;sensor_type;location;lat;lon;timestamp;temperature;humidity
58513;DHT22;44302;47.914;10.642;2023-03-05T08:00:08;1.40;99.90
58513;DHT22;44302;47.914;10.642;2023-03-05T08:15:04;1.70;99.90
58513;DHT22;44302;47.914;10.642;2023-03-05T08:19:00;1.60;99.90
58513;DHT22;44302;47.914;10.642;2023-03-05T08:28:54;1.70;99.90
58513;DHT22;44302;47.914;10.642;2023-03-05T08:38:48;2.00;99.90
58513;DHT22;44302;47.914;10.642;2023-03-05T08:50:09;2.00;99.90
58513;DHT22;44302;47.914;10.642;2023-03-05T08:53:44;2.40;99.90
58513;DHT22;44302;47.914;10.642;2023-03-05T08:57:41;2.60;99.90
58513;DHT22;44302;47.914;10.642;2023-03-05T09:17:45;2.60;99.90
58513;DHT22;44302;47.914;10.642;2023-03-05T09:25:46;2.80;99.90
58513;DHT22;44302;47.914;10.642;2023-03-05T09:33:50;2.80;99.90
58513;DHT22;44302;47.914;10.642;2023-03-05T09:37:51;2.70;99.90
58513;DHT22;44302;47.914;10.642;2023-03-05T09:53:56;3.20;99.90
58513;DHT22;44302;47.914;10.642;2023-03-05T09:56:29;3.20;99.90
58513;DHT22;44302;47.914;10.642;2023-03-05T10:00:11;3.10;99.90
58513;DHT22;44302;47.914;10.642;2023-03-05T10:02:24;3.10;99.90
58513;DHT22;44302;47.914;10.642;2023-03-05T10:05:12;3.00;99.90
58513;DHT22;44302;47.914;10.642;2023-03-05T10:07:43;3.20;99.90
58513;DHT22;44302;47.914;10.642;2023-03-05T10:10:14;3.20;99.90
58513;DHT22;44302;47.914;10.642;2023-03-05T10:12:48;3.20;99.90
58513;DHT22;44302;47.914;10.642;2023-03-05T10:15:23;3.20;99.90
58513;DHT22;44302;47.914;10.642;2023-03-05T10:21:03;3.40;99.90
58513;DHT22;44302;47.914;10.642;2023-03-05T10:44:51;3.70;99.90
58513;DHT22;44302;47.914;10.642;2023-03-05T10:47:29;3.80;99.90
58513;DHT22;44302;47.914;10.642;2023-03-05T10:49:57;3.80;99.90
58513;DHT22;44302;47.914;10.642;2023-03-05T10:52:32;3.90;99.90
58513;DHT22;44302;47.914;10.642;2023-03-05T10:54:59;4.00;99.90
58513;DHT22;44302;47.914;10.642;2023-03-05T10:57:30;4.20;99.90
58513;DHT22;44302;47.914;10.642;2023-03-05T11:00:07;4.20;99.90
58513;DHT22;44302;47.914;10.642;2023-03-05T11:03:02;4.40;99.90
58513;DHT22;44302;47.914;10.642;2023-03-05T11:08:22;4.20;99.90
58513;DHT22;44302;47.914;10.642;2023-03-05T11:13:32;4.60;99.90
58513;DHT22;44302;47.914;10.642;2023-03-05T11:16:03;4.90;99.90
58513;DHT22;44302;47.914;10.642;2023-03-05T11:18:30;5.10;99.90
58513;DHT22;44302;47.914;10.642;2023-03-05T11:21:24;5.10;99.90
58513;DHT22;44302;47.914;10.642;2023-03-05T11:26:34;5.10;99.90
58513;DHT22;44302;47.914;10.642;2023-03-05T11:29:02;5.20;99.90
58513;DHT22;44302;47.914;10.642;2023-03-05T11:31:31;5.10;99.90
58513;DHT22;44302;47.914;10.642;2023-03-05T11:34:28;5.40;99.90
58513;DHT22;44302;47.914;10.642;2023-03-05T11:39:22;5.80;99.90
58513;DHT22;44302;47.914;10.642;2023-03-05T11:41:55;5.90;99.90
58513;DHT22;44302;47.914;10.642;2023-03-05T11:49:42;6.70;99.90
58513;DHT22;44302;47.914;10.642;2023-03-05T11:52:18;6.60;99.90
58513;DHT22;44302;47.914;10.642;2023-03-05T11:55:06;6.60;99.90
58513;DHT22;44302;47.914;10.642;2023-03-05T12:00:17;6.90;99.90
58513;DHT22;44302;47.914;10.642;2023-03-05T12:02:43;6.90;99.90
58513;DHT22;44302;47.914;10.642;2023-03-05T12:05:14;6.70;99.90
58513;DHT22;44302;47.914;10.642;2023-03-05T12:07:43;6.50;99.90
58513;DHT22;44302;47.914;10.642;2023-03-05T12:10:15;6.30;99.90
58513;DHT22;44302;47.914;10.642;2023-03-05T12:12:56;6.20;99.90
58513;DHT22;44302;47.914;10.642;2023-03-05T12:23:47;5.60;99.90
58513;DHT22;44302;47.914;10.642;2023-03-05T12:26:13;5.50;99.90
58513;DHT22;44302;47.914;10.642;2023-03-05T12:33:41;5.10;99.90
58513;DHT22;44302;47.914;10.642;2023-03-05T12:38:53;5.00;99.90
58513;DHT22;44302;47.914;10.642;2023-03-05T12:49:44;4.60;99.90
58513;DHT22;44302;47.914;10.642;2023-03-05T12:52:25;4.60;99.90
58513;DHT22;44302;47.914;10.642;2023-03-05T12:55:05;4.50;99.90
58513;DHT22;44302;47.914;10.642;2023-03-05T12:57:33;4.60;99.90
58513;DHT22;44302;47.914;10.642;2023-03-05T13:02:43;4.50;99.90
58513;DHT22;44302;47.914;10.642;2023-03-05T13:05:34;4.40;99.90
58513;DHT22;44302;47.914;10.642;2023-03-05T13:08:20;4.50;99.90
58513;DHT22;44302;47.914;10.642;2023-03-05T13:10:58;4.50;99.90
58513;DHT22;44302;47.914;10.642;2023-03-05T13:13:26;4.40;99.90
58513;DHT22;44302;47.914;10.642;2023-03-05T13:15:52;4.30;99.90
58513;DHT22;44302;47.914;10.642;2023-03-05T13:18:29;4.10;99.90
58513;DHT22;44302;47.914;10.642;2023-03-05T13:21:13;3.90;99.90
58513;DHT22;44302;47.914;10.642;2023-03-05T13:23:55;3.80;99.90
58513;DHT22;44302;47.914;10.642;2023-03-05T13:26:38;3.90;99.90
58513;DHT22;44302;47.914;10.642;2023-03-05T13:29:17;4.10;99.90
58513;DHT22;44302;47.914;10.642;2023-03-05T13:32:49;4.20;99.90
58513;DHT22;44302;47.914;10.642;2023-03-05T13:34:58;4.30;99.90
58513;DHT22;44302;47.914;10.642;2023-03-05T13:37:32;4.40;99.90
58513;DHT22;44302;47.914;10.642;2023-03-05T13:40:26;4.30;99.90
58513;DHT22;44302;47.914;10.642;2023-03-05T13:42:53;4.40;99.90
58513;DHT22;44302;47.914;10.642;2023-03-05T13:45:28;4.50;99.90
58513;DHT22;44302;47.914;10.642;2023-03-05T13:47:58;4.60;99.90
58513;DHT22;44302;47.914;10.642;2023-03-05T13:50:45;4.70;99.90
58513;DHT22;44302;47.914;10.642;2023-03-05T13:55:50;5.00;99.90
58513;DHT22;44302;47.914;10.642;2023-03-05T14:01:14;4.70;99.90
58513;DHT22;44302;47.914;10.642;2023-03-05T14:03:42;4.60;99.90
58513;DHT22;44302;47.914;10.642;2023-03-05T14:06:11;4.40;99.90
58513;DHT22;44302;47.914;10.642;2023-03-05T14:08:39;4.40;99.90
58513;DHT22;44302;47.914;10.642;2023-03-05T14:11:14;4.30;99.90
58513;DHT22;44302;47.914;10.642;2023-03-05T14:13:41;4.20;99.90
58513;DHT22;44302;47.914;10.642;2023-03-05T14:16:13;4.20;99.90
58513;DHT22;44302;47.914;10.642;2023-03-05T14:18:55;4.00;99.90
58513;DHT22;44302;47.914;10.642;2023-03-05T14:21:22;3.90;99.90
58513;DHT22;44302;47.914;10.642;2023-03-05T14:23:50;4.00;99.90
58513;DHT22;44302;47.914;10.642;2023-03-05T14:26:34;4.00;99.90
58513;DHT22;44302;47.914;10.642;2023-03-05T14:32:05;4.30;99.90
58513;DHT22;44302;47.914;10.642;2023-03-05T14:34:40;4.40;99.90
58513;DHT22;44302;47.914;10.642;2023-03-05T14:37:18;4.50;99.90
58513;DHT22;44302;47.914;10.642;2023-03-05T14:39:52;4.50;99.90
58513;DHT22;44302;47.914;10.642;2023-03-05T14:42:34;4.50;99.90
58513;DHT22;44302;47.914;10.642;2023-03-05T14:45:15;4.40;99.90
58513;DHT22;44302;47.914;10.642;2023-03-05T14:47:42;4.30;99.90
58513;DHT22;44302;47.914;10.642;2023-03-05T14:50:19;4.20;99.90
58513;DHT22;44302;47.914;10.642;2023-03-05T14:52:47;4.20;99.90
58513;DHT22;44302;47.914;10.642;2023-03-05T14:55:19;4.20;99.90
58513;DHT22;44302;47.914;10.642;2023-03-05T14:57:47;4.00;99.90
58513;DHT22;44302;47.914;10.642;2023-03-05T15:02:42;3.90;99.90
58513;DHT22;44302;47.914;10.642;2023-03-05T15:07:34;3.80;99.90
58513;DHT22;44302;47.914;10.642;2023-03-05T15:10:00;3.90;99.90
58513;DHT22;44302;47.914;10.642;2023-03-05T15:14:54;3.80;99.90
58513;DHT22;44302;47.914;10.642;2023-03-05T15:17:32;3.80;99.90
58513;DHT22;44302;47.914;10.642;2023-03-05T15:19:58;3.80;99.90
58513;DHT22;44302;47.914;10.642;2023-03-05T15:22:25;3.80;99.90
58513;DHT22;44302;47.914;10.642;2023-03-05T15:24:50;3.70;99.90
58513;DHT22;44302;47.914;10.642;2023-03-05T15:27:16;3.80;99.90
58513;DHT22;44302;47.914;10.642;2023-03-05T15:29:42;3.80;99.90
58513;DHT22;44302;47.914;10.642;2023-03-05T15:32:08;3.80;99.90
58513;DHT22;44302;47.914;10.642;2023-03-05T15:34:34;3.70;99.90
58513;DHT22;44302;47.914;10.642;2023-03-05T15:37:00;3.60;99.90
58513;DHT22;44302;47.914;10.642;2023-03-05T15:41:52;3.50;99.90
58513;DHT22;44302;47.914;10.642;2023-03-05T15:44:18;3.50;99.90
58513;DHT22;44302;47.914;10.642;2023-03-05T15:49:11;3.40;99.90
58513;DHT22;44302;47.914;10.642;2023-03-05T15:51:37;3.40;99.90
58513;DHT22;44302;47.914;10.642;2023-03-05T15:54:03;3.40;99.90
